createdAt,value
2023-03-18T00:02:15.982Z,11.40
2023-03-18T00:04:48.983Z,11.40
2023-03-18T00:07:23.019Z,11.40
2023-03-18T00:09:50.661Z,11.40
2023-03-18T00:12:24.131Z,11.40
2023-03-18T00:14:51.562Z,11.40
2023-03-18T00:17:18.849Z,11.40
2023-03-18T00:19:52.014Z,11.40
2023-03-18T00:22:26.133Z,11.40
2023-03-18T00:24:53.328Z,11.40
2023-03-18T00:27:27.001Z,11.30
2023-03-18T00:29:53.743Z,11.40
2023-03-18T00:32:28.071Z,11.30
2023-03-18T00:34:56.980Z,11.30
2023-03-18T00:37:38.030Z,11.30
2023-03-18T00:40:15.042Z,11.30
2023-03-18T00:42:47.491Z,11.30
2023-03-18T00:45:24.109Z,11.30
2023-03-18T00:48:00.074Z,11.30
2023-03-18T00:50:27.483Z,11.30
2023-03-18T00:52:57.699Z,11.30
2023-03-18T00:55:31.099Z,11.30
2023-03-18T00:58:05.062Z,11.30
2023-03-18T01:00:38.083Z,11.40
2023-03-18T01:03:17.115Z,11.30
2023-03-18T01:05:45.696Z,11.30
2023-03-18T01:08:24.049Z,11.40
2023-03-18T01:10:51.419Z,11.30
2023-03-18T01:13:25.081Z,11.30
2023-03-18T01:15:52.912Z,11.40
2023-03-18T01:18:31.213Z,11.30
2023-03-18T01:21:05.077Z,11.30
2023-03-18T01:23:38.163Z,11.40
2023-03-18T01:26:12.099Z,11.40
2023-03-18T01:28:43.387Z,11.40
2023-03-18T01:31:10.506Z,11.30
2023-03-18T01:33:44.152Z,11.40
2023-03-18T01:36:11.618Z,11.30
2023-03-18T01:38:45.191Z,11.40
2023-03-18T01:41:19.109Z,11.40
2023-03-18T01:43:45.881Z,11.30
2023-03-18T01:46:41.203Z,11.40
2023-03-18T01:49:23.164Z,11.30
2023-03-18T01:52:05.173Z,11.40
2023-03-18T01:54:43.175Z,11.40
2023-03-18T01:57:17.316Z,11.40
2023-03-18T01:59:54.186Z,11.40
2023-03-18T02:02:28.169Z,11.40
2023-03-18T02:05:02.491Z,11.40
2023-03-18T02:07:39.338Z,11.40
2023-03-18T02:10:11.104Z,11.40
2023-03-18T02:12:47.197Z,11.40
2023-03-18T02:15:18.252Z,11.40
2023-03-18T02:18:30.217Z,11.40
2023-03-18T02:21:21.900Z,11.30
2023-03-18T02:24:29.217Z,11.30
2023-03-18T02:27:17.120Z,11.30
2023-03-18T02:29:52.198Z,11.30
2023-03-18T02:32:20.754Z,11.40
2023-03-18T02:34:55.187Z,11.40
2023-03-18T02:37:22.075Z,11.30
2023-03-18T02:39:49.240Z,11.30
2023-03-18T02:42:23.286Z,11.30
2023-03-18T02:44:50.286Z,11.30
2023-03-18T02:47:29.287Z,11.30
2023-03-18T02:50:25.240Z,11.40
2023-03-18T02:52:59.229Z,11.40
2023-03-18T02:55:26.273Z,11.30
2023-03-18T02:57:59.257Z,11.30
2023-03-18T03:00:26.103Z,11.30
2023-03-18T03:03:08.414Z,11.30
2023-03-18T03:05:38.254Z,11.30
2023-03-18T03:08:15.307Z,11.30
2023-03-18T03:10:42.482Z,11.30
2023-03-18T03:13:16.372Z,11.30
2023-03-18T03:15:43.522Z,11.30
2023-03-18T03:18:18.277Z,11.30
2023-03-18T03:20:45.676Z,11.30
2023-03-18T03:23:22.326Z,11.20
2023-03-18T03:25:49.457Z,11.30
2023-03-18T03:28:23.327Z,11.30
2023-03-18T03:30:50.183Z,11.30
2023-03-18T03:33:17.035Z,11.30
2023-03-18T03:35:50.424Z,11.30
2023-03-18T03:38:18.351Z,11.30
2023-03-18T03:40:53.363Z,11.30
2023-03-18T03:43:26.344Z,11.40
2023-03-18T03:45:53.202Z,11.30
2023-03-18T03:48:26.361Z,11.40
2023-03-18T03:51:00.366Z,11.40
2023-03-18T03:53:33.359Z,11.40
2023-03-18T03:56:00.266Z,11.40
2023-03-18T03:58:27.967Z,11.40
2023-03-18T04:01:01.384Z,11.40
2023-03-18T04:03:28.463Z,11.40
2023-03-18T04:06:03.632Z,11.40
2023-03-18T04:08:30.431Z,11.40
2023-03-18T04:10:57.835Z,11.30
2023-03-18T04:13:37.512Z,11.30
2023-03-18T04:16:04.502Z,11.30
2023-03-18T04:18:31.822Z,11.30
2023-03-18T04:21:05.405Z,11.30
2023-03-18T04:23:33.521Z,11.20
2023-03-18T04:26:00.664Z,11.20
2023-03-18T04:28:34.429Z,11.10
2023-03-18T04:31:01.425Z,11.10
2023-03-18T04:33:35.565Z,11.00
2023-03-18T04:36:02.418Z,11.00
2023-03-18T04:38:29.548Z,10.90
2023-03-18T04:41:03.392Z,10.90
2023-03-18T04:43:30.192Z,10.80
2023-03-18T04:45:56.954Z,10.80
2023-03-18T04:48:30.435Z,10.80
2023-03-18T04:50:57.279Z,10.70
2023-03-18T04:53:24.295Z,10.70
2023-03-18T04:55:58.437Z,10.70
2023-03-18T04:58:31.451Z,10.70
2023-03-18T05:00:58.303Z,10.70
2023-03-18T05:03:31.463Z,10.70
2023-03-18T05:05:58.258Z,10.70
2023-03-18T05:08:25.269Z,10.70
2023-03-18T05:10:58.474Z,10.70
2023-03-18T05:13:31.413Z,10.70
2023-03-18T05:16:05.566Z,10.80
2023-03-18T05:18:33.667Z,10.80
2023-03-18T05:21:00.692Z,10.70
2023-03-18T05:23:35.829Z,10.80
2023-03-18T05:26:03.387Z,10.70
2023-03-18T05:28:30.208Z,10.80
2023-03-18T05:31:03.497Z,10.80
2023-03-18T05:33:30.308Z,10.70
2023-03-18T05:35:57.281Z,10.70
2023-03-18T05:38:30.549Z,10.70
2023-03-18T05:40:57.505Z,10.60
2023-03-18T05:43:24.752Z,10.60
2023-03-18T05:45:58.570Z,10.60
2023-03-18T05:48:25.723Z,10.60
2023-03-18T05:50:52.907Z,10.50
2023-03-18T05:53:26.548Z,10.60
2023-03-18T05:55:53.396Z,10.50
2023-03-18T05:58:21.045Z,10.50
2023-03-18T06:00:55.536Z,10.50
2023-03-18T06:03:24.742Z,10.50
2023-03-18T06:05:58.593Z,10.50
2023-03-18T06:08:25.437Z,10.50
2023-03-18T06:10:59.566Z,10.50
2023-03-18T06:13:32.550Z,10.50
2023-03-18T06:16:00.583Z,10.40
2023-03-18T06:18:27.898Z,10.40
2023-03-18T06:21:01.568Z,10.30
2023-03-18T06:23:29.760Z,10.30
2023-03-18T06:26:03.717Z,10.20
2023-03-18T06:28:31.171Z,10.20
2023-03-18T06:30:58.333Z,10.20
2023-03-18T06:33:32.726Z,10.20
2023-03-18T06:36:00.583Z,10.30
2023-03-18T06:38:28.839Z,10.30
2023-03-18T06:41:03.648Z,10.40
2023-03-18T06:43:37.644Z,10.40
2023-03-18T06:46:05.279Z,10.50
2023-03-18T06:48:34.086Z,10.50
2023-03-18T06:51:07.667Z,10.40
2023-03-18T06:53:36.565Z,10.40
2023-03-18T06:56:06.043Z,10.40
2023-03-18T06:58:39.647Z,10.30
2023-03-18T07:01:12.494Z,10.30
2023-03-18T07:03:45.758Z,10.30
2023-03-18T07:06:12.619Z,10.30
2023-03-18T07:08:39.700Z,10.30
2023-03-18T07:11:13.669Z,10.40
2023-03-18T07:13:40.455Z,10.50
2023-03-18T07:16:07.390Z,10.60
2023-03-18T07:18:40.662Z,10.70
2023-03-18T07:21:07.566Z,10.70
2023-03-18T07:23:34.422Z,10.80
2023-03-18T07:26:07.971Z,10.80
2023-03-18T07:28:34.832Z,10.80
2023-03-18T07:31:01.720Z,10.70
2023-03-18T07:33:35.835Z,10.70
2023-03-18T07:36:02.637Z,10.70
2023-03-18T07:38:29.812Z,10.80
2023-03-18T07:41:03.707Z,10.80
2023-03-18T07:43:36.751Z,10.80
2023-03-18T07:46:04.621Z,10.90
2023-03-18T07:48:31.654Z,10.90
2023-03-18T07:51:05.844Z,10.90
2023-03-18T07:53:33.766Z,10.90
2023-03-18T07:56:00.809Z,10.90
2023-03-18T07:58:43.814Z,11.00
2023-03-18T08:01:12.141Z,11.00
2023-03-18T08:03:38.961Z,11.00
2023-03-18T08:06:12.748Z,11.00
2023-03-18T08:08:48.031Z,11.00
2023-03-18T08:11:15.309Z,11.10
2023-03-18T08:13:42.140Z,11.10
2023-03-18T08:16:15.824Z,11.10
2023-03-18T08:18:42.678Z,11.20
2023-03-18T08:21:09.607Z,11.20
2023-03-18T08:23:43.822Z,11.30
2023-03-18T08:26:11.029Z,11.30
2023-03-18T08:28:38.522Z,11.30
2023-03-18T08:31:11.833Z,11.40
2023-03-18T08:33:38.793Z,11.40
2023-03-18T08:36:08.691Z,11.50
2023-03-18T08:38:42.849Z,11.50
2023-03-18T08:41:10.161Z,11.50
2023-03-18T08:43:39.044Z,11.50
2023-03-18T08:46:12.949Z,11.40
2023-03-18T08:48:41.749Z,11.50
2023-03-18T08:51:08.543Z,11.50
2023-03-18T08:53:42.920Z,11.60
2023-03-18T08:56:09.798Z,11.60
2023-03-18T08:58:36.555Z,11.70
2023-03-18T09:01:12.152Z,11.80
2023-03-18T09:03:45.858Z,11.90
2023-03-18T09:06:19.591Z,12.00
2023-03-18T09:08:52.856Z,12.10
2023-03-18T09:11:20.664Z,12.20
2023-03-18T09:13:47.828Z,12.30
2023-03-18T09:16:22.041Z,12.40
2023-03-18T09:18:49.048Z,12.50
2023-03-18T09:21:15.929Z,12.70
2023-03-18T09:23:50.883Z,12.80
2023-03-18T09:26:17.673Z,12.90
2023-03-18T09:28:50.866Z,13.10
2023-03-18T09:31:24.723Z,13.30
2023-03-18T09:33:57.972Z,13.40
2023-03-18T09:36:25.010Z,13.50
2023-03-18T09:38:51.831Z,13.70
2023-03-18T09:41:51.882Z,13.90
2023-03-18T09:44:36.105Z,13.90
2023-03-18T09:47:30.932Z,14.00
2023-03-18T09:50:08.323Z,14.10
2023-03-18T09:52:48.935Z,14.20
2023-03-18T09:55:52.928Z,14.20
2023-03-18T09:58:30.079Z,14.20
2023-03-18T10:01:10.948Z,14.20
2023-03-18T10:04:02.967Z,14.10
2023-03-18T10:06:38.024Z,14.00
2023-03-18T10:09:10.653Z,14.00
2023-03-18T10:11:53.972Z,14.10
2023-03-18T10:14:26.649Z,14.30
2023-03-18T10:17:02.906Z,14.50
2023-03-18T10:19:29.962Z,14.50
2023-03-18T10:22:31.061Z,14.70
2023-03-18T10:25:07.291Z,14.80
2023-03-18T10:27:47.056Z,15.00
2023-03-18T10:30:39.741Z,15.40
2023-03-18T10:33:24.070Z,15.70
2023-03-18T10:36:02.918Z,15.90
2023-03-18T10:38:50.999Z,16.00
2023-03-18T10:41:23.749Z,16.10
2023-03-18T10:44:00.993Z,16.10
2023-03-18T10:46:28.346Z,16.00
2023-03-18T10:49:06.979Z,16.00
2023-03-18T10:52:22.056Z,15.90
2023-03-18T10:54:59.019Z,15.70
2023-03-18T10:57:29.772Z,15.70
2023-03-18T11:00:02.977Z,15.70
2023-03-18T11:02:35.513Z,15.70
2023-03-18T11:05:18.065Z,15.80
2023-03-18T11:08:08.004Z,15.80
2023-03-18T11:10:52.027Z,15.70
2023-03-18T11:13:20.692Z,15.50
2023-03-18T11:16:03.074Z,15.40
2023-03-18T11:18:33.083Z,15.30
2023-03-18T11:21:01.505Z,15.30
2023-03-18T11:24:15.047Z,15.30
2023-03-18T11:27:03.093Z,15.50
2023-03-18T11:29:34.902Z,15.50
2023-03-18T11:32:02.742Z,15.60
2023-03-18T11:34:39.102Z,15.50
2023-03-18T11:37:18.083Z,15.40
2023-03-18T11:39:44.927Z,15.40
2023-03-18T11:42:28.049Z,15.30
2023-03-18T11:44:57.019Z,15.10
2023-03-18T11:47:39.093Z,15.00
2023-03-18T11:50:18.065Z,15.10
2023-03-18T11:52:56.192Z,15.10
2023-03-18T11:55:39.115Z,15.40
2023-03-18T11:58:32.959Z,15.60
2023-03-18T12:01:33.181Z,15.70
2023-03-18T12:04:31.151Z,15.70
2023-03-18T12:07:46.108Z,15.80
2023-03-18T12:10:31.234Z,16.00
2023-03-18T12:13:07.877Z,16.10
2023-03-18T12:15:54.106Z,16.20
2023-03-18T12:18:37.305Z,16.30
2023-03-18T12:21:38.176Z,16.30
2023-03-18T12:24:32.955Z,16.10
2023-03-18T12:27:13.162Z,15.80
2023-03-18T12:30:01.183Z,15.70
2023-03-18T12:32:56.142Z,15.50
2023-03-18T12:35:48.230Z,15.30
2023-03-18T12:38:31.180Z,15.10
2023-03-18T12:41:15.604Z,15.00
2023-03-18T12:44:10.210Z,15.00
2023-03-18T12:46:47.643Z,15.00
2023-03-18T12:49:32.178Z,15.00
2023-03-18T12:52:05.374Z,15.00
2023-03-18T12:54:54.209Z,15.10
2023-03-18T12:57:51.179Z,15.30
2023-03-18T13:00:35.491Z,15.50
2023-03-18T13:03:32.953Z,15.60
2023-03-18T13:06:47.202Z,15.80
2023-03-18T13:09:44.612Z,15.90
2023-03-18T13:12:38.209Z,16.00
2023-03-18T13:15:24.234Z,16.20
2023-03-18T13:18:01.243Z,16.20
2023-03-18T13:20:35.107Z,16.10
2023-03-18T13:23:32.214Z,16.20
2023-03-18T13:26:27.302Z,16.30
2023-03-18T13:29:23.432Z,16.40
2023-03-18T13:31:59.340Z,16.60
2023-03-18T13:35:05.258Z,16.80
2023-03-18T13:38:12.504Z,17.00
2023-03-18T13:41:04.282Z,17.00
2023-03-18T13:43:35.549Z,16.80
2023-03-18T13:46:10.331Z,16.70
2023-03-18T13:48:40.338Z,16.60
2023-03-18T13:51:46.297Z,16.60
2023-03-18T13:54:18.585Z,16.60
2023-03-18T13:56:54.327Z,16.60
2023-03-18T13:59:33.403Z,16.60
2023-03-18T14:02:36.273Z,16.70
2023-03-18T14:05:04.158Z,16.70
2023-03-18T14:07:31.192Z,16.70
2023-03-18T14:10:18.430Z,16.80
2023-03-18T14:12:54.318Z,17.00
2023-03-18T14:15:44.455Z,17.20
2023-03-18T14:18:28.043Z,17.40
2023-03-18T14:21:07.330Z,17.40
2023-03-18T14:23:41.840Z,17.50
2023-03-18T14:26:26.358Z,17.50
2023-03-18T14:28:57.740Z,17.40
2023-03-18T14:31:41.381Z,17.40
2023-03-18T14:34:24.373Z,17.30
2023-03-18T14:36:53.957Z,17.10
2023-03-18T14:40:01.421Z,17.00
2023-03-18T14:42:50.372Z,16.90
2023-03-18T14:45:34.374Z,16.80
2023-03-18T14:48:28.350Z,16.70
2023-03-18T14:50:59.913Z,16.70
2023-03-18T14:53:41.340Z,16.60
2023-03-18T14:56:24.792Z,16.50
2023-03-18T14:59:00.414Z,16.40
2023-03-18T15:01:37.899Z,16.30
2023-03-18T15:04:15.429Z,16.20
2023-03-18T15:06:42.491Z,16.20
2023-03-18T15:09:23.384Z,16.20
2023-03-18T15:11:50.284Z,16.10
2023-03-18T15:14:36.692Z,16.00
2023-03-18T15:17:12.448Z,16.00
2023-03-18T15:19:45.426Z,16.00
2023-03-18T15:22:28.314Z,16.00
2023-03-18T15:25:08.559Z,15.90
2023-03-18T15:27:36.951Z,15.70
2023-03-18T15:30:12.455Z,15.60
2023-03-18T15:32:56.553Z,15.60
2023-03-18T15:35:35.669Z,15.60
2023-03-18T15:38:17.274Z,15.50
2023-03-18T15:41:19.450Z,15.50
2023-03-18T15:43:49.040Z,15.40
2023-03-18T15:46:34.472Z,15.40
2023-03-18T15:49:09.479Z,15.40
2023-03-18T15:51:44.114Z,15.40
2023-03-18T15:54:34.478Z,15.40
2023-03-18T15:57:18.503Z,15.40
2023-03-18T15:59:45.434Z,15.40
2023-03-18T16:02:25.570Z,15.40
2023-03-18T16:04:52.436Z,15.40
2023-03-18T16:07:29.532Z,15.40
2023-03-18T16:09:56.439Z,15.30
2023-03-18T16:12:24.945Z,15.20
2023-03-18T16:14:58.534Z,15.20
2023-03-18T16:17:31.523Z,15.20
2023-03-18T16:20:04.553Z,15.20
2023-03-18T16:22:38.597Z,15.10
2023-03-18T16:25:06.057Z,15.10
2023-03-18T16:27:47.553Z,15.00
2023-03-18T16:30:29.102Z,15.00
2023-03-18T16:33:03.568Z,15.00
2023-03-18T16:35:33.896Z,15.00
2023-03-18T16:38:01.094Z,14.90
2023-03-18T16:40:37.711Z,14.80
2023-03-18T16:43:11.720Z,14.80
2023-03-18T16:45:39.383Z,14.60
2023-03-18T16:48:07.477Z,14.60
2023-03-18T16:50:44.716Z,14.60
2023-03-18T16:53:31.855Z,14.50
2023-03-18T16:56:09.635Z,14.40
2023-03-18T16:58:37.500Z,14.40
2023-03-18T17:01:07.258Z,14.30
2023-03-18T17:03:42.706Z,14.20
2023-03-18T17:06:09.869Z,14.20
2023-03-18T17:08:36.818Z,14.10
2023-03-18T17:11:24.592Z,14.10
2023-03-18T17:13:52.130Z,14.10
2023-03-18T17:16:26.676Z,14.10
2023-03-18T17:18:53.646Z,14.00
2023-03-18T17:21:26.642Z,14.00
2023-03-18T17:23:53.494Z,14.00
2023-03-18T17:26:20.964Z,14.00
2023-03-18T17:28:56.605Z,14.00
2023-03-18T17:31:23.480Z,14.00
2023-03-18T17:33:56.684Z,14.00
2023-03-18T17:36:29.633Z,14.00
2023-03-18T17:39:05.737Z,14.00
2023-03-18T17:41:32.543Z,14.00
2023-03-18T17:43:59.359Z,14.00
2023-03-18T17:46:32.698Z,14.00
2023-03-18T17:49:05.701Z,13.90
2023-03-18T17:51:32.820Z,13.90
2023-03-18T17:54:07.977Z,13.90
2023-03-18T17:56:36.636Z,13.90
2023-03-18T17:59:19.642Z,13.90
2023-03-18T18:01:48.617Z,13.90
2023-03-18T18:04:26.682Z,13.90
2023-03-18T18:06:54.360Z,13.90
2023-03-18T18:09:21.707Z,13.80
2023-03-18T18:11:55.820Z,13.80
2023-03-18T18:14:26.778Z,13.70
2023-03-18T18:17:02.660Z,13.70
2023-03-18T18:19:35.670Z,13.70
2023-03-18T18:22:04.482Z,13.70
2023-03-18T18:24:34.432Z,13.70
2023-03-18T18:27:11.724Z,13.70
2023-03-18T18:29:46.104Z,13.70
2023-03-18T18:32:13.292Z,13.70
2023-03-18T18:34:40.217Z,13.60
2023-03-18T18:37:14.996Z,13.60
2023-03-18T18:39:42.567Z,13.60
2023-03-18T18:42:09.988Z,13.60
2023-03-18T18:44:45.698Z,13.60
2023-03-18T18:47:19.921Z,13.60
2023-03-18T18:49:53.740Z,13.60
2023-03-18T18:52:21.249Z,13.60
2023-03-18T18:54:54.752Z,13.60
2023-03-18T18:57:35.746Z,13.70
2023-03-18T19:00:02.846Z,13.70
2023-03-18T19:02:35.180Z,13.70
2023-03-18T19:05:11.031Z,13.70
2023-03-18T19:07:38.719Z,13.70
2023-03-18T19:10:06.548Z,13.60
2023-03-18T19:12:40.275Z,13.50
2023-03-18T19:15:09.408Z,13.40
2023-03-18T19:17:37.053Z,13.30
2023-03-18T19:20:13.783Z,13.20
2023-03-18T19:22:47.074Z,13.10
2023-03-18T19:25:13.938Z,13.10
2023-03-18T19:27:40.870Z,13.00
2023-03-18T19:30:27.925Z,13.00
2023-03-18T19:32:54.929Z,13.00
2023-03-18T19:35:28.896Z,13.00
2023-03-18T19:38:04.923Z,13.10
2023-03-18T19:40:41.082Z,13.10
2023-03-18T19:43:26.107Z,13.10
2023-03-18T19:46:00.008Z,13.00
2023-03-18T19:48:28.913Z,12.80
2023-03-18T19:50:57.882Z,12.60
2023-03-18T19:53:33.870Z,12.40
2023-03-18T19:56:07.846Z,12.30
2023-03-18T19:58:34.890Z,12.10
2023-03-18T20:01:10.963Z,12.00
2023-03-18T20:03:37.981Z,11.90
2023-03-18T20:06:11.897Z,11.90
2023-03-18T20:08:38.979Z,11.80
2023-03-18T20:11:12.919Z,11.80
2023-03-18T20:13:40.326Z,11.70
2023-03-18T20:16:18.137Z,11.70
2023-03-18T20:18:45.750Z,11.70
2023-03-18T20:21:35.936Z,11.60
2023-03-18T20:24:08.033Z,11.60
2023-03-18T20:26:35.132Z,11.60
2023-03-18T20:29:08.912Z,11.60
2023-03-18T20:31:36.518Z,11.50
2023-03-18T20:34:09.913Z,11.50
2023-03-18T20:36:44.921Z,11.50
2023-03-18T20:39:20.204Z,11.50
2023-03-18T20:41:54.913Z,11.50
2023-03-18T20:44:28.282Z,11.40
2023-03-18T20:46:55.238Z,11.40
2023-03-18T20:49:22.202Z,11.40
2023-03-18T20:51:59.982Z,11.40
2023-03-18T20:54:31.361Z,11.40
2023-03-18T20:57:04.957Z,11.40
2023-03-18T20:59:31.796Z,11.40
2023-03-18T21:02:04.989Z,11.50
2023-03-18T21:04:32.026Z,11.50
2023-03-18T21:06:59.000Z,11.50
2023-03-18T21:09:32.022Z,11.50
2023-03-18T21:11:58.912Z,11.50
2023-03-18T21:14:33.961Z,11.50
2023-03-18T21:17:01.517Z,11.50
2023-03-18T21:19:35.100Z,11.50
2023-03-18T21:22:02.065Z,11.50
2023-03-18T21:24:36.107Z,11.50
2023-03-18T21:27:10.315Z,11.50
2023-03-18T21:29:37.581Z,11.40
2023-03-18T21:32:06.411Z,11.40
2023-03-18T21:34:40.178Z,11.40
2023-03-18T21:37:15.866Z,11.40
2023-03-18T21:39:57.229Z,11.40
2023-03-18T21:42:33.393Z,11.40
2023-03-18T21:45:07.043Z,11.40
2023-03-18T21:47:40.313Z,11.40
2023-03-18T21:50:07.869Z,11.40
2023-03-18T21:52:39.500Z,11.40
2023-03-18T21:55:14.078Z,11.50
2023-03-18T21:57:41.449Z,11.50
2023-03-18T22:00:23.027Z,11.50
2023-03-18T22:02:50.651Z,11.50
2023-03-18T22:05:29.088Z,11.50
2023-03-18T22:07:56.056Z,11.50
2023-03-18T22:10:23.707Z,11.50
2023-03-18T22:12:58.083Z,11.50
2023-03-18T22:15:31.713Z,11.50
2023-03-18T22:17:58.640Z,11.50
2023-03-18T22:20:25.521Z,11.50
2023-03-18T22:22:59.107Z,11.50
2023-03-18T22:25:38.016Z,11.50
2023-03-18T22:28:05.316Z,11.50
2023-03-18T22:30:41.062Z,11.50
2023-03-18T22:33:15.739Z,11.60
2023-03-18T22:35:49.400Z,11.60
2023-03-18T22:38:18.754Z,11.60
2023-03-18T22:40:47.435Z,11.60
2023-03-18T22:43:47.104Z,11.60
2023-03-18T22:46:16.329Z,11.60
2023-03-18T22:48:50.121Z,11.60
2023-03-18T22:51:29.339Z,11.60
2023-03-18T22:54:04.133Z,11.60
2023-03-18T22:56:39.114Z,11.50
2023-03-18T22:59:06.149Z,11.50
2023-03-18T23:01:32.979Z,11.40
2023-03-18T23:04:07.414Z,11.40
2023-03-18T23:06:34.464Z,11.30
2023-03-18T23:09:01.482Z,11.30
2023-03-18T23:11:37.131Z,11.30
2023-03-18T23:14:04.104Z,11.30
2023-03-18T23:16:30.946Z,11.20
2023-03-18T23:19:04.162Z,11.30
2023-03-18T23:21:37.164Z,11.30
2023-03-18T23:24:11.184Z,11.30
2023-03-18T23:26:37.979Z,11.30
2023-03-18T23:29:04.846Z,11.20
2023-03-18T23:31:38.188Z,11.30
2023-03-18T23:34:05.002Z,11.30
2023-03-18T23:36:31.750Z,11.20
2023-03-18T23:39:05.183Z,11.20
2023-03-18T23:41:31.951Z,11.20
2023-03-18T23:43:58.744Z,11.20
2023-03-18T23:46:32.377Z,11.20
2023-03-18T23:48:59.483Z,11.20
2023-03-18T23:51:26.343Z,11.20
2023-03-18T23:53:59.206Z,11.20
2023-03-18T23:56:32.464Z,11.20
2023-03-18T23:58:59.405Z,11.20
